John M Carras — SVBK5 — position and weather

sailwx.info

Track history (hours):
 
Tides and Currents Weather Stations Pressure Air Temp Water Temp Dewpoint Dewpoint Depression Visibility Wind Speed Wind Dir Waves Ship Positions

John M Carras

Last reported at 2017-Aug-19 12:21 UTC. Time now 2017-Sep-22 04:44 UTC.
Position N 01°16' E 104°01'.
Warning: this ship's position is 33 days out of date.

Length 229 m; draft 13.2 m.

Type: Ship. MMSI: 241150000.

Date/timePositionNaut miles runAvg speedWind from/ knotsBaromVisibWave heightAir tempDewpointWater temp
2017-Aug-19 12:21N 01°16' E 104°01'2 5.5
2017-Aug-19 12:00N 01°17' E 103°60'1 0.1
2017-Aug-19 06:09N 01°17' E 103°59'0 0.0
2017-Aug-19 02:20N 01°17' E 103°59'2 3.6
2017-Aug-19 01:43N 01°15' E 103°58'1 3.2
2017-Aug-19 01:30N 01°15' E 103°57'0 0.9
2017-Aug-19 00:58N 01°16' E 103°57'3 6.8
2017-Aug-19 00:30N 01°13' E 103°56'4 7.1
2017-Aug-19 00:00N 01°11' E 103°52'4 7.0
2017-Aug-18 23:30N 01°10' E 103°49'4 7.4
2017-Aug-18 23:00N 01°08' E 103°46'4 7.7
2017-Aug-18 22:30N 01°05' E 103°43'4 7.6
2017-Aug-18 22:00N 01°03' E 103°40'4 7.7
2017-Aug-18 21:30N 01°04' E 103°37'4 8.9
2017-Aug-18 21:00N 01°07' E 103°33'510.8
2017-Aug-18 20:30N 01°09' E 103°28'711.6
2017-Aug-18 19:52N 01°13' E 103°22'611.4
2017-Aug-18 19:23N 01°17' E 103°18'  
Track history (hours):
 
Tides and Currents Weather Stations Pressure Air Temp Water Temp Dewpoint Dewpoint Depression Visibility Wind Speed Wind Dir Waves Ship Positions

John M Carras

Last reported at 2017-Aug-19 12:21 UTC. Time now 2017-Sep-22 04:44 UTC.
Position N 01°16' E 104°01'.
Warning: this ship's position is 33 days out of date.

Length 229 m; draft 13.2 m.

Type: Ship. MMSI: 241150000.

Date/timePositionNaut miles runAvg speedWind from/ knotsBaromVisibWave heightAir tempDewpointWater temp
2017-Aug-19 12:21N 01°16' E 104°01'2 5.5
2017-Aug-19 12:00N 01°17' E 103°60'1 0.1
2017-Aug-19 06:09N 01°17' E 103°59'0 0.0
2017-Aug-19 02:20N 01°17' E 103°59'2 3.6
2017-Aug-19 01:43N 01°15' E 103°58'1 3.2
2017-Aug-19 01:30N 01°15' E 103°57'0 0.9
2017-Aug-19 00:58N 01°16' E 103°57'3 6.8
2017-Aug-19 00:30N 01°13' E 103°56'4 7.1
2017-Aug-19 00:00N 01°11' E 103°52'4 7.0
2017-Aug-18 23:30N 01°10' E 103°49'4 7.4
2017-Aug-18 23:00N 01°08' E 103°46'4 7.7
2017-Aug-18 22:30N 01°05' E 103°43'4 7.6
2017-Aug-18 22:00N 01°03' E 103°40'4 7.7
2017-Aug-18 21:30N 01°04' E 103°37'4 8.9
2017-Aug-18 21:00N 01°07' E 103°33'510.8
2017-Aug-18 20:30N 01°09' E 103°28'711.6
2017-Aug-18 19:52N 01°13' E 103°22'611.4
2017-Aug-18 19:23N 01°17' E 103°18'  

Dump ship's entire track history